sensor_id;sensor_type;location;lat;lon;timestamp;P1;durP1;ratioP1;P2;durP2;ratioP2
4909;SDS011;2470;49.868;8.660;2023-02-13T00:02:22;9.33;;;4.40;;
4909;SDS011;2470;49.868;8.660;2023-02-13T00:04:48;7.97;;;4.23;;
4909;SDS011;2470;49.868;8.660;2023-02-13T00:07:13;9.47;;;4.20;;
4909;SDS011;2470;49.868;8.660;2023-02-13T00:09:39;6.67;;;3.30;;
4909;SDS011;2470;49.868;8.660;2023-02-13T00:12:05;12.87;;;4.50;;
4909;SDS011;2470;49.868;8.660;2023-02-13T00:14:35;9.03;;;4.27;;
4909;SDS011;2470;49.868;8.660;2023-02-13T00:17:02;6.10;;;4.23;;
4909;SDS011;2470;49.868;8.660;2023-02-13T00:19:28;7.77;;;3.77;;
4909;SDS011;2470;49.868;8.660;2023-02-13T00:21:54;5.93;;;3.47;;
4909;SDS011;2470;49.868;8.660;2023-02-13T00:24:19;7.80;;;4.17;;
4909;SDS011;2470;49.868;8.660;2023-02-13T00:26:45;8.60;;;4.10;;
4909;SDS011;2470;49.868;8.660;2023-02-13T00:29:11;18.53;;;4.60;;
4909;SDS011;2470;49.868;8.660;2023-02-13T00:31:36;8.70;;;4.20;;
4909;SDS011;2470;49.868;8.660;2023-02-13T00:34:02;8.60;;;4.80;;
4909;SDS011;2470;49.868;8.660;2023-02-13T00:36:27;7.47;;;4.83;;
4909;SDS011;2470;49.868;8.660;2023-02-13T00:38:53;10.37;;;5.37;;
4909;SDS011;2470;49.868;8.660;2023-02-13T00:41:19;10.00;;;5.57;;
4909;SDS011;2470;49.868;8.660;2023-02-13T00:43:45;7.47;;;4.27;;
4909;SDS011;2470;49.868;8.660;2023-02-13T00:46:12;9.70;;;3.73;;
4909;SDS011;2470;49.868;8.660;2023-02-13T00:48:38;8.60;;;4.47;;
4909;SDS011;2470;49.868;8.660;2023-02-13T00:51:04;14.60;;;4.80;;
4909;SDS011;2470;49.868;8.660;2023-02-13T00:53:31;8.67;;;4.50;;
4909;SDS011;2470;49.868;8.660;2023-02-13T00:55:57;8.90;;;3.80;;
4909;SDS011;2470;49.868;8.660;2023-02-13T00:58:23;11.10;;;5.10;;
4909;SDS011;2470;49.868;8.660;2023-02-13T01:00:49;18.13;;;6.30;;
4909;SDS011;2470;49.868;8.660;2023-02-13T01:03:16;14.20;;;5.00;;
4909;SDS011;2470;49.868;8.660;2023-02-13T01:05:43;8.50;;;5.30;;
4909;SDS011;2470;49.868;8.660;2023-02-13T01:08:09;10.53;;;5.30;;
4909;SDS011;2470;49.868;8.660;2023-02-13T01:10:37;11.23;;;5.30;;
4909;SDS011;2470;49.868;8.660;2023-02-13T01:13:03;13.40;;;5.10;;
4909;SDS011;2470;49.868;8.660;2023-02-13T01:15:29;11.27;;;4.73;;
4909;SDS011;2470;49.868;8.660;2023-02-13T01:17:56;8.73;;;4.60;;
4909;SDS011;2470;49.868;8.660;2023-02-13T01:20:22;14.10;;;5.50;;
4909;SDS011;2470;49.868;8.660;2023-02-13T01:22:48;21.53;;;6.07;;
4909;SDS011;2470;49.868;8.660;2023-02-13T01:25:14;7.53;;;5.07;;
4909;SDS011;2470;49.868;8.660;2023-02-13T01:27:40;9.47;;;4.90;;
4909;SDS011;2470;49.868;8.660;2023-02-13T01:30:05;11.30;;;5.73;;
4909;SDS011;2470;49.868;8.660;2023-02-13T01:32:37;14.47;;;5.57;;
4909;SDS011;2470;49.868;8.660;2023-02-13T01:35:07;10.90;;;4.60;;
4909;SDS011;2470;49.868;8.660;2023-02-13T01:37:33;14.57;;;5.50;;
4909;SDS011;2470;49.868;8.660;2023-02-13T01:39:59;10.70;;;4.87;;
4909;SDS011;2470;49.868;8.660;2023-02-13T01:42:29;10.87;;;4.93;;
4909;SDS011;2470;49.868;8.660;2023-02-13T01:45:18;9.00;;;4.60;;
4909;SDS011;2470;49.868;8.660;2023-02-13T01:54:06;7.53;;;4.70;;
4909;SDS011;2470;49.868;8.660;2023-02-13T01:56:39;11.00;;;5.90;;
4909;SDS011;2470;49.868;8.660;2023-02-13T01:59:10;15.43;;;5.73;;
4909;SDS011;2470;49.868;8.660;2023-02-13T02:01:41;8.80;;;4.87;;
4909;SDS011;2470;49.868;8.660;2023-02-13T02:04:12;9.17;;;4.93;;
4909;SDS011;2470;49.868;8.660;2023-02-13T02:06:47;10.87;;;5.70;;
4909;SDS011;2470;49.868;8.660;2023-02-13T02:09:16;13.70;;;5.13;;
4909;SDS011;2470;49.868;8.660;2023-02-13T02:12:31;12.90;;;6.30;;
4909;SDS011;2470;49.868;8.660;2023-02-13T02:14:49;12.63;;;5.43;;
4909;SDS011;2470;49.868;8.660;2023-02-13T02:17:17;8.00;;;4.60;;
4909;SDS011;2470;49.868;8.660;2023-02-13T02:19:45;10.27;;;5.97;;
4909;SDS011;2470;49.868;8.660;2023-02-13T02:22:21;15.07;;;5.80;;
4909;SDS011;2470;49.868;8.660;2023-02-13T02:30:37;13.50;;;6.17;;
4909;SDS011;2470;49.868;8.660;2023-02-13T02:41:29;10.27;;;6.27;;
4909;SDS011;2470;49.868;8.660;2023-02-13T02:46:46;12.90;;;5.73;;
4909;SDS011;2470;49.868;8.660;2023-02-13T02:49:41;17.40;;;5.60;;
4909;SDS011;2470;49.868;8.660;2023-02-13T02:55:00;6.93;;;4.40;;
4909;SDS011;2470;49.868;8.660;2023-02-13T02:57:32;7.23;;;4.20;;
4909;SDS011;2470;49.868;8.660;2023-02-13T03:00:29;14.20;;;4.97;;
4909;SDS011;2470;49.868;8.660;2023-02-13T03:03:16;13.27;;;4.90;;
4909;SDS011;2470;49.868;8.660;2023-02-13T03:06:08;7.07;;;3.77;;
4909;SDS011;2470;49.868;8.660;2023-02-13T03:08:59;10.90;;;5.77;;
4909;SDS011;2470;49.868;8.660;2023-02-13T03:11:48;18.73;;;6.53;;
4909;SDS011;2470;49.868;8.660;2023-02-13T03:14:33;17.33;;;5.97;;
4909;SDS011;2470;49.868;8.660;2023-02-13T03:16:59;11.60;;;6.63;;
4909;SDS011;2470;49.868;8.660;2023-02-13T03:19:50;14.03;;;6.57;;
4909;SDS011;2470;49.868;8.660;2023-02-13T03:23:13;11.10;;;4.80;;
4909;SDS011;2470;49.868;8.660;2023-02-13T03:25:56;15.23;;;7.00;;
4909;SDS011;2470;49.868;8.660;2023-02-13T03:34:25;18.40;;;5.70;;
4909;SDS011;2470;49.868;8.660;2023-02-13T03:37:23;14.63;;;6.90;;
4909;SDS011;2470;49.868;8.660;2023-02-13T03:40:15;18.70;;;6.30;;
4909;SDS011;2470;49.868;8.660;2023-02-13T03:42:47;8.30;;;4.83;;
4909;SDS011;2470;49.868;8.660;2023-02-13T03:45:21;18.43;;;4.97;;
4909;SDS011;2470;49.868;8.660;2023-02-13T03:48:09;8.90;;;4.60;;
4909;SDS011;2470;49.868;8.660;2023-02-13T03:51:04;11.00;;;6.07;;
4909;SDS011;2470;49.868;8.660;2023-02-13T03:53:32;10.67;;;4.73;;
4909;SDS011;2470;49.868;8.660;2023-02-13T03:56:02;14.83;;;5.30;;
4909;SDS011;2470;49.868;8.660;2023-02-13T03:58:49;12.30;;;5.60;;
4909;SDS011;2470;49.868;8.660;2023-02-13T04:01:36;10.63;;;4.70;;
4909;SDS011;2470;49.868;8.660;2023-02-13T04:06:54;8.37;;;5.53;;
4909;SDS011;2470;49.868;8.660;2023-02-13T04:09:22;10.60;;;5.37;;
4909;SDS011;2470;49.868;8.660;2023-02-13T04:14:39;11.80;;;5.80;;
4909;SDS011;2470;49.868;8.660;2023-02-13T04:17:35;8.83;;;5.17;;
4909;SDS011;2470;49.868;8.660;2023-02-13T04:20:00;13.07;;;6.03;;
4909;SDS011;2470;49.868;8.660;2023-02-13T04:22:26;13.40;;;6.33;;
4909;SDS011;2470;49.868;8.660;2023-02-13T04:24:51;17.43;;;7.00;;
4909;SDS011;2470;49.868;8.660;2023-02-13T04:27:17;21.63;;;5.67;;
4909;SDS011;2470;49.868;8.660;2023-02-13T04:29:43;12.90;;;5.30;;
4909;SDS011;2470;49.868;8.660;2023-02-13T04:32:09;7.97;;;4.90;;
4909;SDS011;2470;49.868;8.660;2023-02-13T04:34:35;17.87;;;7.30;;
4909;SDS011;2470;49.868;8.660;2023-02-13T04:37:01;12.67;;;6.13;;
4909;SDS011;2470;49.868;8.660;2023-02-13T04:39:26;18.33;;;6.33;;
4909;SDS011;2470;49.868;8.660;2023-02-13T04:41:52;16.03;;;7.50;;
4909;SDS011;2470;49.868;8.660;2023-02-13T04:44:17;18.17;;;8.60;;
4909;SDS011;2470;49.868;8.660;2023-02-13T04:46:43;14.23;;;6.43;;
4909;SDS011;2470;49.868;8.660;2023-02-13T04:49:09;14.20;;;5.70;;
4909;SDS011;2470;49.868;8.660;2023-02-13T04:51:35;27.50;;;9.17;;
4909;SDS011;2470;49.868;8.660;2023-02-13T04:54:00;13.40;;;6.57;;
4909;SDS011;2470;49.868;8.660;2023-02-13T04:56:26;15.80;;;7.10;;
4909;SDS011;2470;49.868;8.660;2023-02-13T04:58:51;18.83;;;7.17;;
4909;SDS011;2470;49.868;8.660;2023-02-13T05:01:19;18.97;;;7.27;;
4909;SDS011;2470;49.868;8.660;2023-02-13T05:03:44;15.67;;;6.07;;
4909;SDS011;2470;49.868;8.660;2023-02-13T05:06:10;13.33;;;5.60;;
4909;SDS011;2470;49.868;8.660;2023-02-13T05:08:35;15.10;;;6.80;;
4909;SDS011;2470;49.868;8.660;2023-02-13T05:11:01;13.40;;;6.37;;
4909;SDS011;2470;49.868;8.660;2023-02-13T05:13:26;15.93;;;7.40;;
4909;SDS011;2470;49.868;8.660;2023-02-13T05:15:52;12.07;;;5.83;;
4909;SDS011;2470;49.868;8.660;2023-02-13T05:18:18;17.67;;;6.70;;
4909;SDS011;2470;49.868;8.660;2023-02-13T05:20:43;13.60;;;7.03;;
4909;SDS011;2470;49.868;8.660;2023-02-13T05:23:13;19.43;;;6.53;;
4909;SDS011;2470;49.868;8.660;2023-02-13T05:25:48;17.17;;;7.67;;
4909;SDS011;2470;49.868;8.660;2023-02-13T05:28:14;12.07;;;6.10;;
4909;SDS011;2470;49.868;8.660;2023-02-13T05:31:06;16.57;;;7.00;;
4909;SDS011;2470;49.868;8.660;2023-02-13T05:33:32;13.60;;;6.73;;
4909;SDS011;2470;49.868;8.660;2023-02-13T05:35:57;14.97;;;6.20;;
4909;SDS011;2470;49.868;8.660;2023-02-13T05:38:23;14.70;;;7.87;;
4909;SDS011;2470;49.868;8.660;2023-02-13T05:40:49;13.60;;;7.13;;
4909;SDS011;2470;49.868;8.660;2023-02-13T05:43:14;16.07;;;7.50;;
4909;SDS011;2470;49.868;8.660;2023-02-13T05:45:40;19.20;;;6.37;;
4909;SDS011;2470;49.868;8.660;2023-02-13T05:48:05;22.83;;;7.93;;
4909;SDS011;2470;49.868;8.660;2023-02-13T05:50:31;15.37;;;6.47;;
4909;SDS011;2470;49.868;8.660;2023-02-13T05:52:56;17.33;;;6.43;;
4909;SDS011;2470;49.868;8.660;2023-02-13T05:55:22;16.67;;;6.10;;
4909;SDS011;2470;49.868;8.660;2023-02-13T05:57:47;28.23;;;8.47;;
4909;SDS011;2470;49.868;8.660;2023-02-13T06:00:13;13.13;;;6.27;;
4909;SDS011;2470;49.868;8.660;2023-02-13T06:02:39;20.40;;;6.30;;
4909;SDS011;2470;49.868;8.660;2023-02-13T06:05:05;12.13;;;6.43;;
4909;SDS011;2470;49.868;8.660;2023-02-13T06:07:30;18.93;;;8.00;;
4909;SDS011;2470;49.868;8.660;2023-02-13T06:09:56;13.37;;;6.53;;
4909;SDS011;2470;49.868;8.660;2023-02-13T06:12:23;20.73;;;7.37;;
4909;SDS011;2470;49.868;8.660;2023-02-13T06:14:49;12.90;;;6.67;;
4909;SDS011;2470;49.868;8.660;2023-02-13T06:17:15;13.53;;;5.73;;
4909;SDS011;2470;49.868;8.660;2023-02-13T06:19:40;17.10;;;6.30;;
4909;SDS011;2470;49.868;8.660;2023-02-13T06:22:06;10.77;;;6.03;;
4909;SDS011;2470;49.868;8.660;2023-02-13T06:24:31;19.70;;;6.33;;
4909;SDS011;2470;49.868;8.660;2023-02-13T06:26:56;9.17;;;5.57;;
4909;SDS011;2470;49.868;8.660;2023-02-13T06:29:22;14.87;;;6.07;;
4909;SDS011;2470;49.868;8.660;2023-02-13T06:31:47;16.70;;;6.17;;
4909;SDS011;2470;49.868;8.660;2023-02-13T06:34:13;11.53;;;6.40;;
4909;SDS011;2470;49.868;8.660;2023-02-13T06:36:39;9.97;;;5.47;;
4909;SDS011;2470;49.868;8.660;2023-02-13T06:39:07;12.90;;;6.37;;
4909;SDS011;2470;49.868;8.660;2023-02-13T06:41:34;14.53;;;5.73;;
4909;SDS011;2470;49.868;8.660;2023-02-13T06:44:00;12.70;;;6.73;;
4909;SDS011;2470;49.868;8.660;2023-02-13T06:46:25;14.27;;;7.10;;
4909;SDS011;2470;49.868;8.660;2023-02-13T06:48:57;13.30;;;5.63;;
4909;SDS011;2470;49.868;8.660;2023-02-13T06:51:22;14.87;;;6.50;;
4909;SDS011;2470;49.868;8.660;2023-02-13T06:53:48;9.93;;;6.20;;
4909;SDS011;2470;49.868;8.660;2023-02-13T06:56:13;22.17;;;7.80;;
4909;SDS011;2470;49.868;8.660;2023-02-13T06:58:39;13.37;;;6.00;;
4909;SDS011;2470;49.868;8.660;2023-02-13T07:01:04;21.20;;;6.00;;
4909;SDS011;2470;49.868;8.660;2023-02-13T07:03:30;19.03;;;7.50;;
4909;SDS011;2470;49.868;8.660;2023-02-13T07:05:55;18.37;;;6.33;;
4909;SDS011;2470;49.868;8.660;2023-02-13T07:08:21;17.33;;;6.93;;
4909;SDS011;2470;49.868;8.660;2023-02-13T07:10:47;12.30;;;7.30;;
4909;SDS011;2470;49.868;8.660;2023-02-13T07:13:12;14.17;;;7.67;;
4909;SDS011;2470;49.868;8.660;2023-02-13T07:15:38;33.77;;;7.07;;
4909;SDS011;2470;49.868;8.660;2023-02-13T07:18:04;16.47;;;6.60;;
4909;SDS011;2470;49.868;8.660;2023-02-13T07:20:30;15.83;;;7.73;;
4909;SDS011;2470;49.868;8.660;2023-02-13T07:22:57;10.20;;;5.40;;
4909;SDS011;2470;49.868;8.660;2023-02-13T07:25:27;12.00;;;6.17;;
4909;SDS011;2470;49.868;8.660;2023-02-13T07:27:53;13.77;;;6.13;;
4909;SDS011;2470;49.868;8.660;2023-02-13T07:30:19;14.03;;;5.50;;
4909;SDS011;2470;49.868;8.660;2023-02-13T07:32:45;16.30;;;6.90;;
4909;SDS011;2470;49.868;8.660;2023-02-13T07:35:10;15.73;;;5.40;;
4909;SDS011;2470;49.868;8.660;2023-02-13T07:37:36;9.43;;;4.97;;
4909;SDS011;2470;49.868;8.660;2023-02-13T07:40:02;8.60;;;5.23;;
4909;SDS011;2470;49.868;8.660;2023-02-13T07:42:28;9.50;;;5.07;;
4909;SDS011;2470;49.868;8.660;2023-02-13T07:44:56;14.47;;;6.40;;
4909;SDS011;2470;49.868;8.660;2023-02-13T07:47:22;15.90;;;6.83;;
4909;SDS011;2470;49.868;8.660;2023-02-13T07:49:48;14.60;;;6.13;;
4909;SDS011;2470;49.868;8.660;2023-02-13T07:52:13;11.57;;;6.50;;
4909;SDS011;2470;49.868;8.660;2023-02-13T07:54:40;14.33;;;6.07;;
4909;SDS011;2470;49.868;8.660;2023-02-13T07:57:11;13.50;;;6.70;;
4909;SDS011;2470;49.868;8.660;2023-02-13T07:59:40;13.97;;;6.93;;
4909;SDS011;2470;49.868;8.660;2023-02-13T08:02:09;10.40;;;4.83;;
4909;SDS011;2470;49.868;8.660;2023-02-13T08:04:39;13.33;;;5.60;;
4909;SDS011;2470;49.868;8.660;2023-02-13T08:07:04;13.03;;;5.40;;
4909;SDS011;2470;49.868;8.660;2023-02-13T08:09:30;27.03;;;5.40;;
4909;SDS011;2470;49.868;8.660;2023-02-13T08:12:15;12.10;;;5.00;;
4909;SDS011;2470;49.868;8.660;2023-02-13T08:14:40;11.17;;;5.80;;
4909;SDS011;2470;49.868;8.660;2023-02-13T08:17:06;14.93;;;6.23;;
4909;SDS011;2470;49.868;8.660;2023-02-13T08:19:32;12.30;;;5.47;;
4909;SDS011;2470;49.868;8.660;2023-02-13T08:21:58;9.77;;;3.87;;
4909;SDS011;2470;49.868;8.660;2023-02-13T08:24:24;10.47;;;5.23;;
4909;SDS011;2470;49.868;8.660;2023-02-13T08:26:49;13.53;;;5.67;;
4909;SDS011;2470;49.868;8.660;2023-02-13T08:29:15;13.77;;;6.23;;
4909;SDS011;2470;49.868;8.660;2023-02-13T08:31:40;11.10;;;5.50;;
4909;SDS011;2470;49.868;8.660;2023-02-13T08:34:06;12.70;;;5.47;;
4909;SDS011;2470;49.868;8.660;2023-02-13T08:36:31;9.77;;;4.50;;
4909;SDS011;2470;49.868;8.660;2023-02-13T08:38:57;12.80;;;5.73;;
4909;SDS011;2470;49.868;8.660;2023-02-13T08:41:22;13.23;;;4.63;;
4909;SDS011;2470;49.868;8.660;2023-02-13T08:43:48;11.13;;;5.33;;
4909;SDS011;2470;49.868;8.660;2023-02-13T08:46:14;8.93;;;4.10;;
4909;SDS011;2470;49.868;8.660;2023-02-13T08:48:41;14.67;;;6.17;;
4909;SDS011;2470;49.868;8.660;2023-02-13T08:51:07;7.83;;;4.27;;
4909;SDS011;2470;49.868;8.660;2023-02-13T08:53:34;6.60;;;4.10;;
4909;SDS011;2470;49.868;8.660;2023-02-13T08:56:00;11.60;;;4.90;;
4909;SDS011;2470;49.868;8.660;2023-02-13T08:58:26;9.83;;;4.03;;
4909;SDS011;2470;49.868;8.660;2023-02-13T09:00:52;6.50;;;3.37;;
4909;SDS011;2470;49.868;8.660;2023-02-13T09:03:17;7.13;;;4.90;;
4909;SDS011;2470;49.868;8.660;2023-02-13T09:05:43;6.43;;;3.97;;
4909;SDS011;2470;49.868;8.660;2023-02-13T09:08:09;7.40;;;4.10;;
4909;SDS011;2470;49.868;8.660;2023-02-13T09:10:37;5.50;;;4.07;;
4909;SDS011;2470;49.868;8.660;2023-02-13T09:13:04;7.93;;;3.97;;
4909;SDS011;2470;49.868;8.660;2023-02-13T09:15:30;6.70;;;3.13;;
4909;SDS011;2470;49.868;8.660;2023-02-13T09:17:56;7.60;;;4.33;;
4909;SDS011;2470;49.868;8.660;2023-02-13T09:20:22;12.47;;;5.23;;
4909;SDS011;2470;49.868;8.660;2023-02-13T09:22:47;5.83;;;4.00;;
4909;SDS011;2470;49.868;8.660;2023-02-13T09:25:13;7.17;;;3.83;;
4909;SDS011;2470;49.868;8.660;2023-02-13T09:27:38;7.30;;;4.30;;
4909;SDS011;2470;49.868;8.660;2023-02-13T09:30:05;11.57;;;4.77;;
4909;SDS011;2470;49.868;8.660;2023-02-13T09:32:31;10.83;;;5.30;;
4909;SDS011;2470;49.868;8.660;2023-02-13T09:34:58;16.73;;;4.30;;
4909;SDS011;2470;49.868;8.660;2023-02-13T09:37:24;7.07;;;4.40;;
4909;SDS011;2470;49.868;8.660;2023-02-13T09:39:50;8.43;;;5.03;;
4909;SDS011;2470;49.868;8.660;2023-02-13T09:42:18;8.50;;;4.80;;
4909;SDS011;2470;49.868;8.660;2023-02-13T09:44:54;10.90;;;4.57;;
4909;SDS011;2470;49.868;8.660;2023-02-13T09:47:30;8.30;;;5.03;;
4909;SDS011;2470;49.868;8.660;2023-02-13T09:50:02;8.10;;;4.53;;
4909;SDS011;2470;49.868;8.660;2023-02-13T09:52:36;7.20;;;4.03;;
4909;SDS011;2470;49.868;8.660;2023-02-13T09:55:12;5.73;;;3.53;;
4909;SDS011;2470;49.868;8.660;2023-02-13T09:58:27;5.70;;;3.50;;
4909;SDS011;2470;49.868;8.660;2023-02-13T10:00:47;8.23;;;4.80;;
4909;SDS011;2470;49.868;8.660;2023-02-13T10:05:53;8.93;;;4.53;;
4909;SDS011;2470;49.868;8.660;2023-02-13T10:16:39;6.30;;;4.10;;
4909;SDS011;2470;49.868;8.660;2023-02-13T10:22:17;3.83;;;3.10;;
4909;SDS011;2470;49.868;8.660;2023-02-13T10:24:46;5.60;;;3.43;;
4909;SDS011;2470;49.868;8.660;2023-02-13T10:27:22;7.57;;;4.73;;
4909;SDS011;2470;49.868;8.660;2023-02-13T10:29:51;5.77;;;3.47;;
4909;SDS011;2470;49.868;8.660;2023-02-13T10:32:30;8.83;;;2.57;;
4909;SDS011;2470;49.868;8.660;2023-02-13T10:35:14;6.00;;;3.80;;
4909;SDS011;2470;49.868;8.660;2023-02-13T10:37:54;6.50;;;3.93;;
4909;SDS011;2470;49.868;8.660;2023-02-13T10:40:23;4.33;;;2.87;;
4909;SDS011;2470;49.868;8.660;2023-02-13T10:43:02;4.60;;;3.10;;
4909;SDS011;2470;49.868;8.660;2023-02-13T10:51:26;4.70;;;3.30;;
4909;SDS011;2470;49.868;8.660;2023-02-13T10:59:30;6.33;;;3.03;;
4909;SDS011;2470;49.868;8.660;2023-02-13T11:02:17;4.23;;;3.23;;
4909;SDS011;2470;49.868;8.660;2023-02-13T11:04:51;11.00;;;4.07;;
4909;SDS011;2470;49.868;8.660;2023-02-13T11:07:23;8.13;;;3.73;;
4909;SDS011;2470;49.868;8.660;2023-02-13T11:09:51;5.37;;;2.87;;
4909;SDS011;2470;49.868;8.660;2023-02-13T11:12:32;8.40;;;3.47;;
4909;SDS011;2470;49.868;8.660;2023-02-13T11:14:59;9.97;;;3.27;;
4909;SDS011;2470;49.868;8.660;2023-02-13T11:17:30;5.53;;;4.00;;
4909;SDS011;2470;49.868;8.660;2023-02-13T11:20:00;6.30;;;4.23;;
4909;SDS011;2470;49.868;8.660;2023-02-13T11:22:32;6.77;;;4.30;;
4909;SDS011;2470;49.868;8.660;2023-02-13T11:25:05;6.57;;;4.27;;
4909;SDS011;2470;49.868;8.660;2023-02-13T11:28:03;7.70;;;4.50;;
4909;SDS011;2470;49.868;8.660;2023-02-13T11:30:34;7.40;;;2.93;;
4909;SDS011;2470;49.868;8.660;2023-02-13T11:33:43;6.27;;;3.77;;
4909;SDS011;2470;49.868;8.660;2023-02-13T11:36:03;5.63;;;3.80;;
4909;SDS011;2470;49.868;8.660;2023-02-13T11:38:31;6.40;;;3.80;;
4909;SDS011;2470;49.868;8.660;2023-02-13T11:41:10;5.73;;;3.77;;
4909;SDS011;2470;49.868;8.660;2023-02-13T11:43:42;7.07;;;3.87;;
4909;SDS011;2470;49.868;8.660;2023-02-13T11:46:25;10.53;;;4.00;;
4909;SDS011;2470;49.868;8.660;2023-02-13T11:48:56;5.90;;;4.40;;
4909;SDS011;2470;49.868;8.660;2023-02-13T11:51:43;4.97;;;3.43;;
4909;SDS011;2470;49.868;8.660;2023-02-13T11:57:02;5.57;;;3.03;;
4909;SDS011;2470;49.868;8.660;2023-02-13T11:59:40;7.97;;;3.23;;
4909;SDS011;2470;49.868;8.660;2023-02-13T12:04:42;7.33;;;3.77;;
4909;SDS011;2470;49.868;8.660;2023-02-13T12:07:22;7.97;;;2.83;;
4909;SDS011;2470;49.868;8.660;2023-02-13T12:09:59;4.60;;;2.90;;
4909;SDS011;2470;49.868;8.660;2023-02-13T12:15:23;3.13;;;2.47;;
4909;SDS011;2470;49.868;8.660;2023-02-13T12:18:17;6.10;;;3.10;;
4909;SDS011;2470;49.868;8.660;2023-02-13T12:21:00;6.38;;;3.28;;
4909;SDS011;2470;49.868;8.660;2023-02-13T12:23:51;2.80;;;2.25;;
4909;SDS011;2470;49.868;8.660;2023-02-13T12:26:42;3.30;;;2.22;;
4909;SDS011;2470;49.868;8.660;2023-02-13T12:29:25;6.32;;;2.78;;
4909;SDS011;2470;49.868;8.660;2023-02-13T12:32:20;4.05;;;2.65;;
4909;SDS011;2470;49.868;8.660;2023-02-13T12:43:16;3.25;;;2.35;;
4909;SDS011;2470;49.868;8.660;2023-02-13T12:46:08;5.35;;;2.75;;
4909;SDS011;2470;49.868;8.660;2023-02-13T13:06:09;1.85;;;1.73;;
4909;SDS011;2470;49.868;8.660;2023-02-13T13:08:50;2.83;;;2.25;;
4909;SDS011;2470;49.868;8.660;2023-02-13T13:11:57;2.03;;;1.92;;
4909;SDS011;2470;49.868;8.660;2023-02-13T13:23:04;1.77;;;1.67;;
4909;SDS011;2470;49.868;8.660;2023-02-13T13:28:21;2.05;;;1.85;;
4909;SDS011;2470;49.868;8.660;2023-02-13T13:30:49;1.73;;;1.60;;
4909;SDS011;2470;49.868;8.660;2023-02-13T13:33:17;1.65;;;1.50;;
4909;SDS011;2470;49.868;8.660;2023-02-13T13:35:52;3.92;;;2.42;;
4909;SDS011;2470;49.868;8.660;2023-02-13T13:41:17;1.85;;;1.75;;
4909;SDS011;2470;49.868;8.660;2023-02-13T13:44:04;3.05;;;2.03;;
4909;SDS011;2470;49.868;8.660;2023-02-13T13:54:49;1.88;;;1.77;;
4909;SDS011;2470;49.868;8.660;2023-02-13T13:57:24;2.17;;;1.98;;
4909;SDS011;2470;49.868;8.660;2023-02-13T14:08:00;1.60;;;1.50;;
4909;SDS011;2470;49.868;8.660;2023-02-13T14:15:47;1.63;;;1.52;;
4909;SDS011;2470;49.868;8.660;2023-02-13T14:23:26;2.03;;;1.60;;
4909;SDS011;2470;49.868;8.660;2023-02-13T14:28:41;3.70;;;1.50;;
4909;SDS011;2470;49.868;8.660;2023-02-13T14:31:29;2.97;;;2.15;;
4909;SDS011;2470;49.868;8.660;2023-02-13T14:33:59;8.15;;;1.90;;
4909;SDS011;2470;49.868;8.660;2023-02-13T14:36:41;1.60;;;1.50;;
4909;SDS011;2470;49.868;8.660;2023-02-13T14:39:21;2.60;;;1.90;;
4909;SDS011;2470;49.868;8.660;2023-02-13T14:47:10;3.08;;;1.83;;
4909;SDS011;2470;49.868;8.660;2023-02-13T14:49:54;2.20;;;2.00;;
4909;SDS011;2470;49.868;8.660;2023-02-13T14:52:22;1.90;;;1.70;;
4909;SDS011;2470;49.868;8.660;2023-02-13T14:54:53;1.67;;;1.50;;
4909;SDS011;2470;49.868;8.660;2023-02-13T14:57:28;3.38;;;1.70;;
4909;SDS011;2470;49.868;8.660;2023-02-13T15:00:00;2.88;;;2.13;;
4909;SDS011;2470;49.868;8.660;2023-02-13T15:02:34;2.83;;;1.65;;
4909;SDS011;2470;49.868;8.660;2023-02-13T15:05:06;5.70;;;3.47;;
4909;SDS011;2470;49.868;8.660;2023-02-13T15:07:39;3.10;;;2.75;;
4909;SDS011;2470;49.868;8.660;2023-02-13T15:10:27;3.25;;;2.58;;
4909;SDS011;2470;49.868;8.660;2023-02-13T15:13:11;5.20;;;3.10;;
4909;SDS011;2470;49.868;8.660;2023-02-13T15:16:01;2.08;;;1.77;;
4909;SDS011;2470;49.868;8.660;2023-02-13T15:18:34;3.67;;;3.00;;
4909;SDS011;2470;49.868;8.660;2023-02-13T15:21:13;3.63;;;2.60;;
4909;SDS011;2470;49.868;8.660;2023-02-13T15:23:41;3.80;;;2.65;;
4909;SDS011;2470;49.868;8.660;2023-02-13T15:26:07;2.70;;;2.13;;
4909;SDS011;2470;49.868;8.660;2023-02-13T15:28:34;3.35;;;2.55;;
4909;SDS011;2470;49.868;8.660;2023-02-13T15:31:04;6.55;;;3.60;;
4909;SDS011;2470;49.868;8.660;2023-02-13T15:33:44;7.10;;;4.20;;
4909;SDS011;2470;49.868;8.660;2023-02-13T15:36:15;6.47;;;4.07;;
4909;SDS011;2470;49.868;8.660;2023-02-13T15:38:41;13.90;;;6.45;;
4909;SDS011;2470;49.868;8.660;2023-02-13T15:43:43;9.00;;;3.75;;
4909;SDS011;2470;49.868;8.660;2023-02-13T15:46:20;10.43;;;5.63;;
4909;SDS011;2470;49.868;8.660;2023-02-13T15:48:51;11.10;;;5.93;;
4909;SDS011;2470;49.868;8.660;2023-02-13T15:51:21;18.30;;;6.22;;
4909;SDS011;2470;49.868;8.660;2023-02-13T15:53:49;13.05;;;5.75;;
4909;SDS011;2470;49.868;8.660;2023-02-13T15:56:22;13.65;;;4.93;;
4909;SDS011;2470;49.868;8.660;2023-02-13T15:58:48;9.15;;;4.75;;
4909;SDS011;2470;49.868;8.660;2023-02-13T16:01:15;5.15;;;3.85;;
4909;SDS011;2470;49.868;8.660;2023-02-13T16:03:41;16.20;;;8.07;;
4909;SDS011;2470;49.868;8.660;2023-02-13T16:06:19;7.97;;;4.20;;
4909;SDS011;2470;49.868;8.660;2023-02-13T16:08:51;5.77;;;3.90;;
4909;SDS011;2470;49.868;8.660;2023-02-13T16:11:19;7.90;;;3.80;;
4909;SDS011;2470;49.868;8.660;2023-02-13T16:14:06;8.93;;;3.77;;
4909;SDS011;2470;49.868;8.660;2023-02-13T16:16:40;12.37;;;4.10;;
4909;SDS011;2470;49.868;8.660;2023-02-13T16:24:54;8.83;;;4.70;;
4909;SDS011;2470;49.868;8.660;2023-02-13T16:27:28;10.83;;;4.67;;
4909;SDS011;2470;49.868;8.660;2023-02-13T16:29:57;10.53;;;4.40;;
4909;SDS011;2470;49.868;8.660;2023-02-13T16:32:26;8.80;;;4.63;;
4909;SDS011;2470;49.868;8.660;2023-02-13T16:34:53;6.83;;;3.20;;
4909;SDS011;2470;49.868;8.660;2023-02-13T16:37:26;5.43;;;2.77;;
4909;SDS011;2470;49.868;8.660;2023-02-13T16:39:54;5.40;;;3.13;;
4909;SDS011;2470;49.868;8.660;2023-02-13T16:42:20;5.77;;;3.27;;
4909;SDS011;2470;49.868;8.660;2023-02-13T16:44:45;6.37;;;2.87;;
4909;SDS011;2470;49.868;8.660;2023-02-13T16:47:23;4.30;;;2.90;;
4909;SDS011;2470;49.868;8.660;2023-02-13T16:49:50;10.80;;;5.07;;
4909;SDS011;2470;49.868;8.660;2023-02-13T16:52:23;6.50;;;3.30;;
4909;SDS011;2470;49.868;8.660;2023-02-13T16:54:53;7.33;;;3.27;;
4909;SDS011;2470;49.868;8.660;2023-02-13T16:57:25;3.63;;;2.87;;
4909;SDS011;2470;49.868;8.660;2023-02-13T17:02:44;8.40;;;4.53;;
4909;SDS011;2470;49.868;8.660;2023-02-13T17:07:44;11.40;;;3.93;;
4909;SDS011;2470;49.868;8.660;2023-02-13T17:10:16;6.50;;;3.60;;
4909;SDS011;2470;49.868;8.660;2023-02-13T17:13:00;4.53;;;3.00;;
4909;SDS011;2470;49.868;8.660;2023-02-13T17:15:42;5.53;;;3.90;;
4909;SDS011;2470;49.868;8.660;2023-02-13T17:18:09;3.90;;;2.83;;
4909;SDS011;2470;49.868;8.660;2023-02-13T17:20:34;6.30;;;3.13;;
4909;SDS011;2470;49.868;8.660;2023-02-13T17:23:02;6.20;;;3.67;;
4909;SDS011;2470;49.868;8.660;2023-02-13T17:25:30;4.60;;;3.30;;
4909;SDS011;2470;49.868;8.660;2023-02-13T17:27:58;4.53;;;3.20;;
4909;SDS011;2470;49.868;8.660;2023-02-13T17:30:30;5.03;;;3.33;;
4909;SDS011;2470;49.868;8.660;2023-02-13T17:32:57;6.73;;;3.93;;
4909;SDS011;2470;49.868;8.660;2023-02-13T17:35:27;5.57;;;3.47;;
4909;SDS011;2470;49.868;8.660;2023-02-13T17:37:53;9.33;;;4.43;;
4909;SDS011;2470;49.868;8.660;2023-02-13T17:40:19;14.87;;;3.83;;
4909;SDS011;2470;49.868;8.660;2023-02-13T17:42:50;9.30;;;4.30;;
4909;SDS011;2470;49.868;8.660;2023-02-13T17:45:18;4.60;;;3.10;;
4909;SDS011;2470;49.868;8.660;2023-02-13T17:47:45;6.90;;;4.07;;
4909;SDS011;2470;49.868;8.660;2023-02-13T17:50:11;13.37;;;4.60;;
4909;SDS011;2470;49.868;8.660;2023-02-13T17:52:38;8.50;;;4.30;;
4909;SDS011;2470;49.868;8.660;2023-02-13T17:55:05;6.77;;;3.97;;
4909;SDS011;2470;49.868;8.660;2023-02-13T17:57:38;8.23;;;5.30;;
4909;SDS011;2470;49.868;8.660;2023-02-13T18:00:03;10.60;;;4.57;;
4909;SDS011;2470;49.868;8.660;2023-02-13T18:02:30;10.97;;;4.50;;
4909;SDS011;2470;49.868;8.660;2023-02-13T18:04:56;12.60;;;5.37;;
4909;SDS011;2470;49.868;8.660;2023-02-13T18:07:22;10.27;;;4.30;;
4909;SDS011;2470;49.868;8.660;2023-02-13T18:09:48;5.10;;;3.23;;
4909;SDS011;2470;49.868;8.660;2023-02-13T18:12:15;13.07;;;4.77;;